createdAt,value
2023-04-28T00:01:20.717Z,7.00
2023-04-28T00:03:49.124Z,7.00
2023-04-28T00:06:17.503Z,7.00
2023-04-28T00:08:47.032Z,6.90
2023-04-28T00:11:15.304Z,6.90
2023-04-28T00:13:43.396Z,6.90
2023-04-28T00:16:11.526Z,6.80
2023-04-28T00:18:39.690Z,6.80
2023-04-28T00:21:08.610Z,6.80
2023-04-28T00:23:40.861Z,6.80
2023-04-28T00:26:10.446Z,6.70
2023-04-28T00:28:38.545Z,6.70
2023-04-28T00:31:12.709Z,6.60
2023-04-28T00:33:41.795Z,6.60
2023-04-28T00:36:11.291Z,6.60
2023-04-28T00:38:39.825Z,6.60
2023-04-28T00:41:11.037Z,6.60
2023-04-28T00:43:49.605Z,6.60
2023-04-28T00:46:24.058Z,6.50
2023-04-28T00:48:52.533Z,6.40
2023-04-28T00:51:21.547Z,6.40
2023-04-28T00:53:49.858Z,6.40
2023-04-28T00:56:19.668Z,6.30
2023-04-28T00:58:47.791Z,6.30
2023-04-28T01:01:16.897Z,6.20
2023-04-28T01:03:45.476Z,6.20
2023-04-28T01:06:16.452Z,6.10
2023-04-28T01:08:44.894Z,6.10
2023-04-28T01:11:14.130Z,6.10
2023-04-28T01:13:43.777Z,6.10
2023-04-28T01:16:12.209Z,6.20
2023-04-28T01:18:47.904Z,6.20
2023-04-28T01:21:16.552Z,6.10
2023-04-28T01:23:48.420Z,6.10
2023-04-28T01:26:20.710Z,6.10
2023-04-28T01:28:48.810Z,6.10
2023-04-28T01:31:17.081Z,6.10
2023-04-28T01:33:45.365Z,6.10
2023-04-28T01:36:13.430Z,6.10
2023-04-28T01:38:41.829Z,6.00
2023-04-28T01:41:11.332Z,6.00
2023-04-28T01:43:39.464Z,6.10
2023-04-28T01:46:07.655Z,6.10
2023-04-28T01:48:35.910Z,6.10
2023-04-28T01:51:04.209Z,6.10
2023-04-28T01:53:32.316Z,6.20
2023-04-28T01:56:00.459Z,6.20
2023-04-28T01:58:29.931Z,6.30
2023-04-28T02:00:58.029Z,6.30
2023-04-28T02:03:26.270Z,6.30
2023-04-28T02:05:55.488Z,6.40
2023-04-28T02:08:23.598Z,6.40
2023-04-28T02:10:51.773Z,6.40
2023-04-28T02:13:19.844Z,6.40
2023-04-28T02:15:49.323Z,6.40
2023-04-28T02:18:17.466Z,6.40
2023-04-28T02:20:45.523Z,6.40
2023-04-28T02:23:13.691Z,6.40
2023-04-28T02:25:42.023Z,6.40
2023-04-28T02:28:10.117Z,6.40
2023-04-28T02:30:38.180Z,6.40
2023-04-28T02:33:07.698Z,6.40
2023-04-28T02:35:36.531Z,6.40
2023-04-28T02:38:04.649Z,6.40
2023-04-28T02:40:32.750Z,6.40
2023-04-28T02:43:00.828Z,6.40
2023-04-28T02:45:28.978Z,6.40
2023-04-28T02:47:57.142Z,6.40
2023-04-28T02:50:26.909Z,6.30
2023-04-28T02:52:56.307Z,6.30
2023-04-28T02:55:24.497Z,6.30
2023-04-28T02:57:52.962Z,6.30
2023-04-28T03:00:21.365Z,6.30
2023-04-28T03:02:49.645Z,6.30
2023-04-28T03:05:21.136Z,6.40
2023-04-28T03:07:50.598Z,6.40
2023-04-28T03:10:18.719Z,6.50
2023-04-28T03:12:46.941Z,6.60
2023-04-28T03:15:18.686Z,6.50
2023-04-28T03:17:46.844Z,6.60
2023-04-28T03:20:15.470Z,6.70
2023-04-28T03:22:43.565Z,6.70
2023-04-28T03:25:13.185Z,6.70
2023-04-28T03:27:41.271Z,6.60
2023-04-28T03:30:10.424Z,6.60
2023-04-28T03:32:38.576Z,6.50
2023-04-28T03:35:07.514Z,6.40
2023-04-28T03:37:38.813Z,6.40
2023-04-28T03:40:08.696Z,6.40
2023-04-28T03:42:38.812Z,6.40
2023-04-28T03:45:08.227Z,6.40
2023-04-28T03:47:37.236Z,6.40
2023-04-28T03:50:06.216Z,6.40
2023-04-28T03:52:34.450Z,6.50
2023-04-28T03:55:02.609Z,6.50
2023-04-28T03:57:30.769Z,6.50
2023-04-28T04:00:00.230Z,6.50
2023-04-28T04:02:28.528Z,6.60
2023-04-28T04:04:57.265Z,6.60
2023-04-28T04:07:25.750Z,6.50
2023-04-28T04:09:54.356Z,6.50
2023-04-28T04:12:22.482Z,6.50
2023-04-28T04:14:50.534Z,6.50
2023-04-28T04:17:22.707Z,6.50
2023-04-28T04:19:50.826Z,6.60
2023-04-28T04:22:18.942Z,6.60
2023-04-28T04:24:47.017Z,6.70
2023-04-28T04:27:20.788Z,6.70
2023-04-28T04:29:48.913Z,6.90
2023-04-28T04:32:20.137Z,6.90
2023-04-28T04:34:48.356Z,7.00
2023-04-28T04:37:16.533Z,7.10
2023-04-28T04:39:44.618Z,7.20
2023-04-28T04:42:24.190Z,7.20
2023-04-28T04:44:55.011Z,7.30
2023-04-28T04:47:26.013Z,7.30
2023-04-28T04:49:55.575Z,7.30
2023-04-28T04:52:24.977Z,7.40
2023-04-28T04:54:53.342Z,7.40
2023-04-28T04:57:21.591Z,7.50
2023-04-28T04:59:49.679Z,7.50
2023-04-28T05:02:21.555Z,7.60
2023-04-28T05:04:51.279Z,7.60
2023-04-28T05:07:19.438Z,7.60
2023-04-28T05:09:47.558Z,7.60
2023-04-28T05:12:15.761Z,7.70
2023-04-28T05:14:43.841Z,7.70
2023-04-28T05:17:12.292Z,7.70
2023-04-28T05:19:40.362Z,7.90
2023-04-28T05:22:09.893Z,8.00
2023-04-28T05:24:38.091Z,8.10
2023-04-28T05:27:06.219Z,8.10
2023-04-28T05:29:34.412Z,8.30
2023-04-28T05:32:02.886Z,8.40
2023-04-28T05:34:31.455Z,8.50
2023-04-28T05:36:59.745Z,8.70
2023-04-28T05:39:29.292Z,8.90
2023-04-28T05:41:58.578Z,9.10
2023-04-28T05:44:26.914Z,9.20
2023-04-28T05:46:55.535Z,9.40
2023-04-28T05:49:23.823Z,9.50
2023-04-28T05:51:51.940Z,9.60
2023-04-28T05:54:20.104Z,9.60
2023-04-28T05:56:49.873Z,9.70
2023-04-28T05:59:18.422Z,9.80
2023-04-28T06:01:46.700Z,9.80
2023-04-28T06:04:15.721Z,9.90
2023-04-28T06:06:44.183Z,10.00
2023-04-28T06:09:12.318Z,10.20
2023-04-28T06:11:40.434Z,10.60
2023-04-28T06:14:09.912Z,10.90
2023-04-28T06:16:38.051Z,11.30
2023-04-28T06:19:06.270Z,11.70
2023-04-28T06:21:34.415Z,11.90
2023-04-28T06:24:02.693Z,11.90
2023-04-28T06:26:30.977Z,11.90
2023-04-28T06:28:59.150Z,11.90
2023-04-28T06:31:28.643Z,12.10
2023-04-28T06:34:01.790Z,12.30
2023-04-28T06:36:29.974Z,12.30
2023-04-28T06:39:02.013Z,12.30
2023-04-28T06:41:30.378Z,12.40
2023-04-28T06:44:01.172Z,12.40
2023-04-28T06:46:31.701Z,12.40
2023-04-28T06:49:01.488Z,12.50
2023-04-28T06:51:29.803Z,12.60
2023-04-28T06:54:02.722Z,12.40
2023-04-28T06:56:31.003Z,12.60
2023-04-28T06:59:01.301Z,12.60
2023-04-28T07:01:30.939Z,12.60
2023-04-28T07:04:01.921Z,12.70
2023-04-28T07:06:31.793Z,12.70
2023-04-28T07:09:04.789Z,12.70
2023-04-28T07:11:33.353Z,12.70
2023-04-28T07:14:01.844Z,12.70
2023-04-28T07:16:31.653Z,12.80
2023-04-28T07:19:01.735Z,12.90
2023-04-28T07:21:29.875Z,12.90
2023-04-28T07:24:01.602Z,12.90
2023-04-28T07:26:29.983Z,12.80
2023-04-28T07:28:58.179Z,12.60
2023-04-28T07:31:26.745Z,12.70
2023-04-28T07:33:56.527Z,12.70
2023-04-28T07:36:24.712Z,12.80
2023-04-28T07:38:52.834Z,13.10
2023-04-28T07:41:20.966Z,13.20
2023-04-28T07:43:49.109Z,13.50
2023-04-28T07:46:21.116Z,13.60
2023-04-28T07:48:49.368Z,13.70
2023-04-28T07:51:18.965Z,13.90
2023-04-28T07:53:47.125Z,14.10
2023-04-28T07:56:19.873Z,14.20
2023-04-28T07:58:48.050Z,14.40
2023-04-28T08:01:16.809Z,14.40
2023-04-28T08:03:45.224Z,14.50
2023-04-28T08:06:14.985Z,14.60
2023-04-28T08:08:46.229Z,14.70
2023-04-28T08:11:14.330Z,14.80
2023-04-28T08:13:42.461Z,15.00
2023-04-28T08:16:10.763Z,14.90
2023-04-28T08:18:39.832Z,14.80
2023-04-28T08:21:08.216Z,14.70
2023-04-28T08:23:36.508Z,14.60
2023-04-28T08:26:06.091Z,14.60
2023-04-28T08:28:34.726Z,14.50
2023-04-28T08:31:02.935Z,14.40
2023-04-28T08:33:31.062Z,14.50
2023-04-28T08:35:59.570Z,14.60
2023-04-28T08:38:28.532Z,14.80
2023-04-28T08:41:01.701Z,14.90
2023-04-28T08:43:33.989Z,15.00
2023-04-28T08:46:08.406Z,14.90
2023-04-28T08:48:42.837Z,14.90
2023-04-28T08:51:15.788Z,14.90
2023-04-28T08:56:26.044Z,14.70
2023-04-28T08:58:56.481Z,14.60
2023-04-28T09:01:25.107Z,14.40
2023-04-28T09:03:56.111Z,14.40
2023-04-28T09:06:24.470Z,14.40
2023-04-28T09:08:52.632Z,14.30
2023-04-28T09:11:20.939Z,14.20
2023-04-28T09:13:49.103Z,14.30
2023-04-28T09:16:18.783Z,14.20
2023-04-28T09:19:01.245Z,14.30
2023-04-28T09:21:29.371Z,14.30
2023-04-28T09:23:57.512Z,14.30
2023-04-28T09:26:25.661Z,14.10
2023-04-28T09:28:57.284Z,14.20
2023-04-28T09:31:28.606Z,14.00
2023-04-28T09:34:00.624Z,14.10
2023-04-28T09:36:30.686Z,14.10
2023-04-28T09:39:00.238Z,14.30
2023-04-28T09:41:42.569Z,14.20
2023-04-28T09:44:21.746Z,14.20
2023-04-28T09:46:51.253Z,14.20
2023-04-28T09:49:19.399Z,14.00
2023-04-28T09:51:47.573Z,13.90
2023-04-28T09:54:17.217Z,13.90
2023-04-28T09:56:48.515Z,13.80
2023-04-28T09:59:21.592Z,13.80
2023-04-28T10:01:51.592Z,13.80
2023-04-28T10:04:20.179Z,14.00
2023-04-28T10:06:48.726Z,14.10
2023-04-28T10:09:18.052Z,14.00
2023-04-28T10:11:46.284Z,14.20
2023-04-28T10:14:15.021Z,14.10
2023-04-28T10:16:43.900Z,14.00
2023-04-28T10:19:13.866Z,14.10
2023-04-28T10:21:56.749Z,14.10
2023-04-28T10:24:31.187Z,14.20
2023-04-28T10:27:11.208Z,14.30
2023-04-28T10:29:39.422Z,14.40
2023-04-28T10:32:23.466Z,14.50
2023-04-28T10:34:53.671Z,14.60
2023-04-28T10:37:54.765Z,14.50
2023-04-28T10:40:36.023Z,14.40
2023-04-28T10:43:06.617Z,14.50
2023-04-28T10:46:06.247Z,14.40
2023-04-28T10:48:58.643Z,14.60
2023-04-28T10:51:36.044Z,14.70
2023-04-28T10:54:19.180Z,14.80
2023-04-28T10:57:23.277Z,14.50
2023-04-28T10:59:52.330Z,14.50
2023-04-28T11:02:44.366Z,14.40
2023-04-28T11:05:20.837Z,14.30
2023-04-28T11:08:35.910Z,14.00
2023-04-28T11:11:18.342Z,13.70
2023-04-28T11:13:48.012Z,13.30
2023-04-28T11:16:18.545Z,13.30
2023-04-28T11:19:05.547Z,13.20
2023-04-28T11:21:34.644Z,13.20
2023-04-28T11:24:11.431Z,13.20
2023-04-28T11:26:39.928Z,13.20
2023-04-28T11:29:08.631Z,13.30
2023-04-28T11:31:37.336Z,13.40
2023-04-28T11:34:07.685Z,13.60
2023-04-28T11:36:38.185Z,13.60
2023-04-28T11:39:10.170Z,13.70
2023-04-28T11:41:40.776Z,13.80
2023-04-28T11:44:14.193Z,13.80
2023-04-28T11:46:53.726Z,13.80
2023-04-28T11:49:24.443Z,13.80
2023-04-28T11:51:53.685Z,13.70
2023-04-28T11:54:25.037Z,13.80
2023-04-28T11:56:55.587Z,13.90
2023-04-28T11:59:27.343Z,14.10
2023-04-28T12:01:59.125Z,14.20
2023-04-28T12:04:33.024Z,14.30
2023-04-28T12:07:07.497Z,14.50
2023-04-28T12:09:39.935Z,14.80
2023-04-28T12:12:11.758Z,15.20
2023-04-28T12:14:57.423Z,15.50
2023-04-28T12:17:26.984Z,15.70
2023-04-28T12:19:56.034Z,16.00
2023-04-28T12:22:25.368Z,16.10
2023-04-28T12:25:10.315Z,16.30
2023-04-28T12:27:42.318Z,16.10
2023-04-28T12:30:30.152Z,16.10
2023-04-28T12:32:58.635Z,16.20
2023-04-28T12:35:28.335Z,16.20
2023-04-28T12:37:58.977Z,16.30
2023-04-28T12:40:28.536Z,16.30
2023-04-28T12:42:56.894Z,16.50
2023-04-28T12:45:25.081Z,16.40
2023-04-28T12:47:53.187Z,16.20
2023-04-28T12:50:21.700Z,16.00
2023-04-28T12:52:49.792Z,15.80
2023-04-28T12:55:21.655Z,15.60
2023-04-28T12:57:51.539Z,15.40
2023-04-28T13:00:23.217Z,15.50
2023-04-28T13:02:52.233Z,15.50
2023-04-28T13:05:20.523Z,15.60
2023-04-28T13:07:49.316Z,15.80
2023-04-28T13:10:18.953Z,15.90
2023-04-28T13:12:46.995Z,15.80
2023-04-28T13:15:17.059Z,15.90
2023-04-28T13:17:46.333Z,15.80
2023-04-28T13:20:14.525Z,16.00
2023-04-28T13:22:42.825Z,16.00
2023-04-28T13:25:11.469Z,16.10
2023-04-28T13:27:41.952Z,16.00
2023-04-28T13:30:13.299Z,16.00
2023-04-28T13:32:42.739Z,15.80
2023-04-28T13:35:11.131Z,15.70
2023-04-28T13:37:45.750Z,15.80
2023-04-28T13:40:14.331Z,15.60
2023-04-28T13:42:42.413Z,15.50
2023-04-28T13:45:11.460Z,15.30
2023-04-28T13:47:39.803Z,15.20
2023-04-28T13:50:10.082Z,15.10
2023-04-28T13:52:38.105Z,15.00
2023-04-28T13:55:07.070Z,14.80
2023-04-28T13:57:35.187Z,14.80
2023-04-28T14:00:04.708Z,14.80
2023-04-28T14:02:33.095Z,14.70
2023-04-28T14:05:01.226Z,14.80
2023-04-28T14:07:30.884Z,14.80
2023-04-28T14:09:58.930Z,14.90
2023-04-28T14:12:26.969Z,14.80
2023-04-28T14:14:55.003Z,14.80
2023-04-28T14:17:23.187Z,14.80
2023-04-28T14:19:51.511Z,14.80
2023-04-28T14:22:19.628Z,14.70
2023-04-28T14:24:49.329Z,14.70
2023-04-28T14:27:17.690Z,14.70
2023-04-28T14:29:48.150Z,14.60
2023-04-28T14:32:21.316Z,14.60
2023-04-28T14:34:51.751Z,14.70
2023-04-28T14:37:20.223Z,14.70
2023-04-28T14:39:50.143Z,14.70
2023-04-28T14:42:18.258Z,14.80
2023-04-28T14:44:47.661Z,14.90
2023-04-28T14:47:16.093Z,14.90
2023-04-28T14:49:44.459Z,15.00
2023-04-28T14:52:12.755Z,15.20
2023-04-28T14:54:40.831Z,15.30
2023-04-28T14:57:10.255Z,15.40
2023-04-28T14:59:38.297Z,15.40
2023-04-28T15:02:07.760Z,15.30
2023-04-28T15:04:36.244Z,15.20
2023-04-28T15:07:04.364Z,15.20
2023-04-28T15:09:32.602Z,15.00
2023-04-28T15:12:00.594Z,14.90
2023-04-28T15:14:30.076Z,14.80
2023-04-28T15:16:58.107Z,14.80
2023-04-28T15:19:26.245Z,14.60
2023-04-28T15:21:54.382Z,14.60
2023-04-28T15:24:22.407Z,14.60
2023-04-28T15:26:50.470Z,14.60
2023-04-28T15:29:18.909Z,14.70
2023-04-28T15:31:48.374Z,14.60
2023-04-28T15:34:17.103Z,14.60
2023-04-28T15:36:46.889Z,14.40
2023-04-28T15:39:16.297Z,14.30
2023-04-28T15:41:44.493Z,14.30
2023-04-28T15:44:12.525Z,14.20
2023-04-28T15:46:40.782Z,14.20
2023-04-28T15:49:10.157Z,14.10
2023-04-28T15:51:38.207Z,14.10
2023-04-28T15:54:06.283Z,14.10
2023-04-28T15:56:35.088Z,14.20
2023-04-28T15:59:03.231Z,14.20
2023-04-28T16:01:34.252Z,14.20
2023-04-28T16:04:02.710Z,14.10
2023-04-28T16:06:32.632Z,14.00
2023-04-28T16:09:02.219Z,13.90
2023-04-28T16:11:30.312Z,13.90
2023-04-28T16:14:01.645Z,13.90
2023-04-28T16:16:36.384Z,13.90
2023-04-28T16:19:08.339Z,13.90
2023-04-28T16:21:41.753Z,13.90
2023-04-28T16:24:09.961Z,13.80
2023-04-28T16:26:41.692Z,13.80
2023-04-28T16:29:11.675Z,13.80
2023-04-28T16:31:42.342Z,13.70
2023-04-28T16:34:10.451Z,13.60
2023-04-28T16:36:42.277Z,13.60
2023-04-28T16:39:10.634Z,13.50
2023-04-28T16:41:41.906Z,13.50
2023-04-28T16:44:10.128Z,13.40
2023-04-28T16:46:42.848Z,13.40
2023-04-28T16:49:12.391Z,13.40
2023-04-28T16:52:00.485Z,13.40
2023-04-28T16:54:30.395Z,13.40
2023-04-28T16:57:03.994Z,13.40
2023-04-28T16:59:33.887Z,13.30
2023-04-28T17:02:03.874Z,13.40
2023-04-28T17:04:32.750Z,13.30
2023-04-28T17:07:05.169Z,13.30
2023-04-28T17:09:33.761Z,13.20
2023-04-28T17:12:03.538Z,13.20
2023-04-28T17:14:31.952Z,13.20
2023-04-28T17:17:02.067Z,13.20
2023-04-28T17:19:30.457Z,13.10
2023-04-28T17:22:02.237Z,13.20
2023-04-28T17:24:33.082Z,13.20
2023-04-28T17:27:02.515Z,13.10
2023-04-28T17:29:31.015Z,13.10
2023-04-28T17:32:01.974Z,13.10
2023-04-28T17:34:30.033Z,13.10
2023-04-28T17:37:02.656Z,13.00
2023-04-28T17:39:30.769Z,13.00
2023-04-28T17:42:02.574Z,13.00
2023-04-28T17:44:30.947Z,13.00
2023-04-28T17:47:02.311Z,13.00
2023-04-28T17:49:30.490Z,13.00
2023-04-28T17:52:04.031Z,13.00
2023-04-28T17:54:33.883Z,12.90
2023-04-28T17:57:02.723Z,12.90
2023-04-28T17:59:30.847Z,12.90
2023-04-28T18:02:02.115Z,12.90
2023-04-28T18:04:30.693Z,12.90
2023-04-28T18:07:04.284Z,13.00
2023-04-28T18:09:32.569Z,12.90
2023-04-28T18:12:04.476Z,12.90
2023-04-28T18:14:32.656Z,12.90
2023-04-28T18:17:02.111Z,12.90
2023-04-28T18:19:32.262Z,12.90
2023-04-28T18:22:02.112Z,12.80
2023-04-28T18:24:31.573Z,12.80
2023-04-28T18:27:02.254Z,12.80
2023-04-28T18:29:30.339Z,12.90
2023-04-28T18:32:02.084Z,12.90
2023-04-28T18:34:30.457Z,12.90
2023-04-28T18:37:01.855Z,12.90
2023-04-28T18:39:31.331Z,12.90
2023-04-28T18:42:03.017Z,12.90
2023-04-28T18:44:31.461Z,12.80
2023-04-28T18:47:02.000Z,12.90
2023-04-28T18:49:30.169Z,12.80
2023-04-28T18:52:03.547Z,12.80
2023-04-28T18:54:32.992Z,12.90
2023-04-28T18:57:03.383Z,12.90
2023-04-28T18:59:31.500Z,12.80
2023-04-28T19:02:03.205Z,12.80
2023-04-28T19:04:31.815Z,12.80
2023-04-28T19:07:02.673Z,12.80
2023-04-28T19:09:32.244Z,12.80
2023-04-28T19:12:04.485Z,12.80
2023-04-28T19:14:33.219Z,12.90
2023-04-28T19:17:01.572Z,12.90
2023-04-28T19:19:30.054Z,12.90
2023-04-28T19:21:58.163Z,12.80
2023-04-28T19:24:29.112Z,12.70
2023-04-28T19:27:01.164Z,12.60
2023-04-28T19:29:29.271Z,12.60
2023-04-28T19:31:57.834Z,12.60
2023-04-28T19:34:25.952Z,12.50
2023-04-28T19:36:56.105Z,12.60
2023-04-28T19:39:24.288Z,12.50
2023-04-28T19:41:54.413Z,12.50
2023-04-28T19:44:23.909Z,12.50
2023-04-28T19:46:52.035Z,12.40
2023-04-28T19:49:20.129Z,12.50
2023-04-28T19:51:48.341Z,12.50
2023-04-28T19:54:16.963Z,12.50
2023-04-28T19:56:45.074Z,12.50
2023-04-28T19:59:13.189Z,12.50
2023-04-28T20:01:43.526Z,12.50
2023-04-28T20:04:12.920Z,12.40
2023-04-28T20:06:41.419Z,12.30
2023-04-28T20:09:10.166Z,12.30
2023-04-28T20:11:38.413Z,12.30
2023-04-28T20:14:06.531Z,12.20
2023-04-28T20:16:35.310Z,12.20
2023-04-28T20:19:04.886Z,12.20
2023-04-28T20:21:34.877Z,12.20
2023-04-28T20:24:03.161Z,12.10
2023-04-28T20:26:31.536Z,12.00
2023-04-28T20:28:59.900Z,12.00
2023-04-28T20:31:28.068Z,12.00
2023-04-28T20:33:56.330Z,11.90
2023-04-28T20:36:26.820Z,11.90
2023-04-28T20:38:54.925Z,11.90
2023-04-28T20:41:23.045Z,11.90
2023-04-28T20:43:52.370Z,11.90
2023-04-28T20:46:20.688Z,11.80
2023-04-28T20:48:49.025Z,11.70
2023-04-28T20:51:17.420Z,11.60
2023-04-28T20:53:47.176Z,11.70
2023-04-28T20:56:15.323Z,11.70
2023-04-28T20:58:43.986Z,11.80
2023-04-28T21:01:12.151Z,11.80
2023-04-28T21:03:41.237Z,11.90
2023-04-28T21:06:09.497Z,11.90
2023-04-28T21:08:38.550Z,12.00
2023-04-28T21:11:13.591Z,12.00
2023-04-28T21:13:44.767Z,12.00
2023-04-28T21:16:21.496Z,12.00
2023-04-28T21:18:50.679Z,12.00
2023-04-28T21:21:19.102Z,12.10
2023-04-28T21:23:52.280Z,12.00
2023-04-28T21:26:23.956Z,11.90
2023-04-28T21:28:52.049Z,11.80
2023-04-28T21:31:20.179Z,11.70
2023-04-28T21:33:50.450Z,11.70
2023-04-28T21:36:18.565Z,11.70
2023-04-28T21:38:46.677Z,11.60
2023-04-28T21:41:15.355Z,11.70
2023-04-28T21:43:44.824Z,11.70
2023-04-28T21:46:12.989Z,11.70
2023-04-28T21:48:41.384Z,11.60
2023-04-28T21:51:12.384Z,11.50
2023-04-28T21:53:40.508Z,11.50
2023-04-28T21:56:09.195Z,11.50
2023-04-28T21:58:39.059Z,11.40
2023-04-28T22:01:08.771Z,11.50
2023-04-28T22:03:39.009Z,11.40
2023-04-28T22:06:07.444Z,11.40
2023-04-28T22:08:36.242Z,11.30
2023-04-28T22:11:04.679Z,11.20
2023-04-28T22:13:32.788Z,11.10
2023-04-28T22:16:02.778Z,11.00
2023-04-28T22:18:32.646Z,11.00
2023-04-28T22:21:01.430Z,10.90
2023-04-28T22:23:29.565Z,10.90
2023-04-28T22:26:02.916Z,11.00
2023-04-28T22:28:31.053Z,11.00
2023-04-28T22:31:02.524Z,11.00
2023-04-28T22:33:32.381Z,11.10
2023-04-28T22:36:00.574Z,11.20
2023-04-28T22:38:28.686Z,11.10
2023-04-28T22:41:01.526Z,11.10
2023-04-28T22:43:29.825Z,11.00
2023-04-28T22:45:58.745Z,11.00
2023-04-28T22:48:27.254Z,11.00
2023-04-28T22:50:57.618Z,11.00
2023-04-28T22:53:25.817Z,11.00
2023-04-28T22:55:56.651Z,11.00
2023-04-28T22:58:24.778Z,11.10
2023-04-28T23:00:52.824Z,11.10
2023-04-28T23:03:21.752Z,11.00
2023-04-28T23:05:49.907Z,11.00
2023-04-28T23:08:19.864Z,10.90
2023-04-28T23:10:48.027Z,11.00
2023-04-28T23:13:19.819Z,10.90
2023-04-28T23:15:48.032Z,11.00
2023-04-28T23:18:16.846Z,11.00
2023-04-28T23:20:44.960Z,11.00
2023-04-28T23:23:13.232Z,11.10
2023-04-28T23:25:44.055Z,11.10
2023-04-28T23:28:12.309Z,11.20
2023-04-28T23:30:40.396Z,11.20
2023-04-28T23:33:08.484Z,11.20
2023-04-28T23:35:36.723Z,11.20
2023-04-28T23:38:04.910Z,11.30
2023-04-28T23:40:32.994Z,11.30
2023-04-28T23:43:02.682Z,11.30
2023-04-28T23:45:30.860Z,11.30
2023-04-28T23:48:02.198Z,11.30
2023-04-28T23:50:30.298Z,11.40
2023-04-28T23:52:58.415Z,11.40
2023-04-28T23:55:26.520Z,11.50
2023-04-28T23:57:54.612Z,11.40
